Time;durP1;ratioP1;P1;durP2;ratioP2;P2;SDS_P1;SDS_P2;PMS_P1;PMS_P2;Temp;Humidity;BMP_temperature;BMP_pressure;BME280_temperature;BME280_humidity;BME280_pressure;Samples;Min_cycle;Max_cycle;Signal;HPM_P1;HPM_P2
2021/01/17 00:01:06;;;;;;;0.88;0.88;;;;;;;;;;5040150;28;20682;-64
2021/01/17 00:03:32;;;;;;;2.13;2.03;;;;;;;;;;5041776;28;20601;-65
2021/01/17 00:05:58;;;;;;;0.60;0.60;;;;;;;;;;5041579;28;20200;-64
2021/01/17 00:08:24;;;;;;;2.58;2.15;;;;;;;;;;5040304;28;20254;-65
2021/01/17 00:10:50;;;;;;;2.63;2.53;;;;;;;;;;5041638;28;20613;-64
2021/01/17 00:13:16;;;;;;;1.52;1.42;;;;;;;;;;5039458;28;20199;-64
2021/01/17 00:15:42;;;;;;;0.95;0.95;;;;;;;;;;5031570;28;20213;-65
2021/01/17 00:18:08;;;;;;;1.63;1.63;;;;;;;;;;5031856;28;20187;-64
2021/01/17 00:20:35;;;;;;;2.67;2.58;;;;;;;;;;5031736;28;20603;-65
2021/01/17 00:23:02;;;;;;;1.77;1.67;;;;;;;;;;5032497;28;20196;-64
2021/01/17 00:25:28;;;;;;;2.97;2.80;;;;;;;;;;5031994;28;20176;-64
2021/01/17 00:27:54;;;;;;;1.50;1.45;;;;;;;;;;5032061;28;20167;-65
2021/01/17 00:30:24;;;;;;;1.10;1.10;;;;;;;;;;5031702;28;20246;-65
2021/01/17 00:32:51;;;;;;;0.60;0.60;;;;;;;;;;5030557;28;20648;-64
2021/01/17 00:35:17;;;;;;;2.75;2.67;;;;;;;;;;5031752;28;20203;-64
2021/01/17 00:37:43;;;;;;;1.77;1.67;;;;;;;;;;5031819;28;20535;-64
2021/01/17 00:40:10;;;;;;;1.25;1.15;;;;;;;;;;5031513;28;20602;-64
2021/01/17 00:42:36;;;;;;;1.33;1.33;;;;;;;;;;5031689;28;20207;-65
2021/01/17 00:45:03;;;;;;;1.52;1.42;;;;;;;;;;5031750;28;20272;-65
2021/01/17 00:47:29;;;;;;;1.65;1.55;;;;;;;;;;5031829;28;20175;-65
2021/01/17 00:49:55;;;;;;;2.40;2.20;;;;;;;;;;5031467;28;20176;-64
2021/01/17 00:52:22;;;;;;;1.35;1.35;;;;;;;;;;5031341;28;20215;-64
2021/01/17 00:54:48;;;;;;;1.13;1.13;;;;;;;;;;5031523;28;20237;-64
2021/01/17 00:57:14;;;;;;;1.88;1.77;;;;;;;;;;5032105;28;20180;-64
2021/01/17 00:59:40;;;;;;;1.38;1.38;;;;;;;;;;5032056;28;20180;-64
2021/01/17 01:02:07;;;;;;;2.97;2.88;;;;;;;;;;5035637;28;20213;-64
2021/01/17 01:04:33;;;;;;;1.02;1.02;;;;;;;;;;5036848;28;20179;-64
2021/01/17 01:06:59;;;;;;;2.40;2.30;;;;;;;;;;5036818;28;20179;-64
2021/01/17 01:09:26;;;;;;;1.38;1.38;;;;;;;;;;5036271;28;20903;-65
2021/01/17 01:11:52;;;;;;;1.30;1.17;;;;;;;;;;5035853;28;20203;-65
2021/01/17 01:14:18;;;;;;;2.00;2.00;;;;;;;;;;5036364;28;20180;-64
2021/01/17 01:16:48;;;;;;;3.00;2.83;;;;;;;;;;5035931;28;20177;-65
2021/01/17 01:19:14;;;;;;;4.03;3.85;;;;;;;;;;5035787;28;20668;-63
2021/01/17 01:21:40;;;;;;;2.38;2.17;;;;;;;;;;5036088;28;20211;-64
2021/01/17 01:24:07;;;;;;;0.93;0.93;;;;;;;;;;5036093;28;20234;-64
2021/01/17 01:26:51;;;;;;;1.77;1.73;;;;;;;;;;5035934;28;20176;-64
2021/01/17 01:29:17;;;;;;;1.05;1.05;;;;;;;;;;5035942;28;20219;-64
2021/01/17 01:31:43;;;;;;;4.40;4.13;;;;;;;;;;5035759;28;20612;-64
2021/01/17 01:34:09;;;;;;;2.10;2.00;;;;;;;;;;5034484;28;20425;-65
2021/01/17 01:36:36;;;;;;;1.00;1.00;;;;;;;;;;5035765;28;20237;-64
2021/01/17 01:39:03;;;;;;;3.08;2.97;;;;;;;;;;5034759;28;20215;-64
2021/01/17 01:41:32;;;;;;;1.88;1.88;;;;;;;;;;5034797;28;20243;-63
2021/01/17 01:43:58;;;;;;;1.02;1.02;;;;;;;;;;5035142;28;20547;-65
2021/01/17 01:46:25;;;;;;;3.63;3.42;;;;;;;;;;5034737;28;20187;-65
2021/01/17 01:48:52;;;;;;;4.68;4.22;;;;;;;;;;5033318;28;20173;-64
2021/01/17 01:51:19;;;;;;;2.80;2.60;;;;;;;;;;5034487;28;20203;-64
2021/01/17 01:53:45;;;;;;;2.55;2.35;;;;;;;;;;5034607;28;20579;-64
2021/01/17 01:56:13;;;;;;;1.40;1.40;;;;;;;;;;5034599;28;20211;-64
2021/01/17 01:58:39;;;;;;;1.83;1.83;;;;;;;;;;5034724;28;20187;-64
2021/01/17 02:01:06;;;;;;;2.08;2.08;;;;;;;;;;5034554;28;20291;-64
2021/01/17 02:03:32;;;;;;;1.17;1.17;;;;;;;;;;5034733;28;20260;-64
2021/01/17 02:05:58;;;;;;;1.27;1.27;;;;;;;;;;5034442;28;20203;-64
2021/01/17 02:08:43;;;;;;;1.65;1.65;;;;;;;;;;5034485;28;20172;-64
2021/01/17 02:11:28;;;;;;;0.95;0.95;;;;;;;;;;5034420;28;20194;-64
2021/01/17 02:14:01;;;;;;;1.77;1.67;;;;;;;;;;5033108;28;20198;-65
2021/01/17 02:16:27;;;;;;;1.55;1.45;;;;;;;;;;5032562;28;20225;-65
2021/01/17 02:18:54;;;;;;;1.55;1.55;;;;;;;;;;5034093;28;20210;-63
2021/01/17 02:21:21;;;;;;;3.05;2.55;;;;;;;;;;5034043;28;20197;-65
2021/01/17 02:23:52;;;;;;;0.80;0.80;;;;;;;;;;5034258;28;20175;-64
2021/01/17 02:26:18;;;;;;;1.10;1.10;;;;;;;;;;5034404;28;20842;-64
2021/01/17 02:28:45;;;;;;;2.55;2.35;;;;;;;;;;5034019;28;20209;-64
2021/01/17 02:31:11;;;;;;;1.92;1.83;;;;;;;;;;5034052;28;20183;-66
2021/01/17 02:33:39;;;;;;;2.03;1.92;;;;;;;;;;5033824;28;20209;-64
2021/01/17 02:36:25;;;;;;;1.30;1.30;;;;;;;;;;5034888;28;20188;-64
2021/01/17 02:39:10;;;;;;;2.20;2.08;;;;;;;;;;5024140;28;20287;-64
2021/01/17 02:41:44;;;;;;;1.88;1.77;;;;;;;;;;5034191;28;20261;-64
2021/01/17 02:44:11;;;;;;;2.55;2.20;;;;;;;;;;5034949;28;20175;-64
2021/01/17 02:46:37;;;;;;;1.80;1.50;;;;;;;;;;5034799;28;20164;-66
2021/01/17 02:49:03;;;;;;;2.55;2.35;;;;;;;;;;5034390;28;20179;-64
2021/01/17 02:51:29;;;;;;;3.15;3.05;;;;;;;;;;5033305;28;20410;-63
2021/01/17 02:54:09;;;;;;;2.78;2.58;;;;;;;;;;5078147;23;20238;-66
2021/01/17 02:56:37;;;;;;;3.28;3.17;;;;;;;;;;5072043;28;20192;-66
2021/01/17 02:59:06;;;;;;;2.15;2.05;;;;;;;;;;5072560;28;20189;-66
2021/01/17 03:01:33;;;;;;;1.50;1.40;;;;;;;;;;5071947;28;20197;-65
2021/01/17 03:04:05;;;;;;;1.15;1.15;;;;;;;;;;5050473;28;20248;-65
2021/01/17 03:06:32;;;;;;;1.40;1.40;;;;;;;;;;5051492;28;20186;-65
2021/01/17 03:08:59;;;;;;;2.53;2.42;;;;;;;;;;5052640;28;20579;-66
2021/01/17 03:11:25;;;;;;;1.75;1.40;;;;;;;;;;5050141;28;20186;-65
2021/01/17 03:13:52;;;;;;;1.50;1.50;;;;;;;;;;5052715;28;20619;-64
2021/01/17 03:16:19;;;;;;;3.60;3.30;;;;;;;;;;5052894;28;20194;-66
2021/01/17 03:18:45;;;;;;;1.20;1.20;;;;;;;;;;5051386;28;21017;-64
2021/01/17 03:21:11;;;;;;;5.60;2.80;;;;;;;;;;5052468;28;20202;-65
2021/01/17 03:23:37;;;;;;;2.45;2.35;;;;;;;;;;5051983;28;20663;-65
2021/01/17 03:26:03;;;;;;;0.90;0.90;;;;;;;;;;5052425;28;20178;-66
2021/01/17 03:28:29;;;;;;;1.23;1.23;;;;;;;;;;5053020;28;20543;-66
2021/01/17 03:30:55;;;;;;;3.25;3.05;;;;;;;;;;5053076;28;20176;-66
2021/01/17 03:33:21;;;;;;;6.60;4.15;;;;;;;;;;5032683;28;20295;-66
2021/01/17 03:35:47;;;;;;;1.70;1.70;;;;;;;;;;5033833;28;20674;-64
2021/01/17 03:38:13;;;;;;;3.22;3.13;;;;;;;;;;5033962;28;20183;-66
2021/01/17 03:40:39;;;;;;;1.63;1.63;;;;;;;;;;5037308;28;20606;-65
2021/01/17 03:43:05;;;;;;;1.77;1.67;;;;;;;;;;5039042;28;20191;-65
2021/01/17 03:45:31;;;;;;;3.85;3.63;;;;;;;;;;5037831;28;20182;-66
2021/01/17 03:47:57;;;;;;;1.60;1.52;;;;;;;;;;5037327;28;20182;-65
2021/01/17 03:50:23;;;;;;;1.70;1.60;;;;;;;;;;5035880;28;20179;-66
2021/01/17 03:52:49;;;;;;;0.82;0.82;;;;;;;;;;5034883;28;20572;-66
2021/01/17 03:55:15;;;;;;;1.60;1.60;;;;;;;;;;5033100;28;20176;-63
2021/01/17 03:57:41;;;;;;;6.80;2.28;;;;;;;;;;5032445;28;20191;-65
2021/01/17 04:00:07;;;;;;;1.85;1.85;;;;;;;;;;5032143;28;20275;-65
2021/01/17 04:02:33;;;;;;;1.95;1.95;;;;;;;;;;5032027;28;20225;-66
2021/01/17 04:04:59;;;;;;;0.95;0.95;;;;;;;;;;5032290;28;20586;-65
2021/01/17 04:07:28;;;;;;;3.90;3.45;;;;;;;;;;5032402;28;20175;-68
2021/01/17 04:09:53;;;;;;;1.52;1.45;;;;;;;;;;5032109;28;20178;-65
2021/01/17 04:12:19;;;;;;;1.58;1.48;;;;;;;;;;5032392;28;20289;-64
2021/01/17 04:14:45;;;;;;;1.60;1.60;;;;;;;;;;5032002;28;20184;-66
2021/01/17 04:17:11;;;;;;;1.70;1.60;;;;;;;;;;5032235;28;20176;-67
2021/01/17 04:19:37;;;;;;;1.90;1.77;;;;;;;;;;5031925;28;20185;-67
2021/01/17 04:22:03;;;;;;;1.63;1.63;;;;;;;;;;5031964;28;20196;-66
2021/01/17 04:24:29;;;;;;;1.38;1.38;;;;;;;;;;5031989;28;20183;-68
2021/01/17 04:26:59;;;;;;;2.55;2.45;;;;;;;;;;5031967;28;20175;-65
2021/01/17 04:29:25;;;;;;;2.15;2.05;;;;;;;;;;5031824;28;20234;-66
2021/01/17 04:31:51;;;;;;;1.80;1.77;;;;;;;;;;5031970;28;20230;-66
2021/01/17 04:34:17;;;;;;;2.13;2.00;;;;;;;;;;5031748;28;20663;-66
2021/01/17 04:36:47;;;;;;;1.30;1.30;;;;;;;;;;5031045;28;20184;-65
2021/01/17 04:39:13;;;;;;;3.08;2.78;;;;;;;;;;5031712;28;20176;-66
2021/01/17 04:41:41;;;;;;;1.67;1.67;;;;;;;;;;5031772;28;20195;-65
2021/01/17 04:44:08;;;;;;;5.32;4.28;;;;;;;;;;5031975;28;20219;-67
2021/01/17 04:46:35;;;;;;;1.92;1.83;;;;;;;;;;5031710;28;20186;-65
2021/01/17 04:49:02;;;;;;;1.77;1.77;;;;;;;;;;5031692;28;20175;-65
2021/01/17 04:51:28;;;;;;;2.80;2.70;;;;;;;;;;5031765;28;20640;-65
2021/01/17 04:53:55;;;;;;;1.35;1.25;;;;;;;;;;5031453;28;20586;-66
2021/01/17 04:56:25;;;;;;;2.10;1.90;;;;;;;;;;5031619;28;20180;-67
2021/01/17 04:59:11;;;;;;;0.70;0.70;;;;;;;;;;5031429;28;20179;-65
2021/01/17 05:01:47;;;;;;;1.75;1.65;;;;;;;;;;5021008;28;20583;-65
2021/01/17 05:04:31;;;;;;;1.73;1.73;;;;;;;;;;5030052;28;20202;-65
2021/01/17 05:06:58;;;;;;;2.83;2.55;;;;;;;;;;5031413;28;20667;-66
2021/01/17 05:09:30;;;;;;;1.67;1.67;;;;;;;;;;5031148;28;20172;-65
2021/01/17 05:12:03;;;;;;;2.28;2.17;;;;;;;;;;5031458;28;20186;-66
2021/01/17 05:14:38;;;;;;;1.27;1.27;;;;;;;;;;5031589;28;20230;-67
2021/01/17 05:17:05;;;;;;;1.02;0.80;;;;;;;;;;5031483;28;20172;-66
2021/01/17 05:19:36;;;;;;;2.58;2.47;;;;;;;;;;5031354;28;20179;-66
2021/01/17 05:22:03;;;;;;;2.47;2.35;;;;;;;;;;5031223;28;20239;-65
2021/01/17 05:24:30;;;;;;;1.27;1.27;;;;;;;;;;5031506;28;20710;-66
2021/01/17 05:26:58;;;;;;;1.40;1.30;;;;;;;;;;5031663;28;20247;-65
2021/01/17 05:29:25;;;;;;;2.63;1.90;;;;;;;;;;5031514;28;20226;-66
2021/01/17 05:31:56;;;;;;;0.75;0.75;;;;;;;;;;5031474;28;20181;-66
2021/01/17 05:34:22;;;;;;;3.90;3.78;;;;;;;;;;5031759;28;20165;-66
2021/01/17 05:37:00;;;;;;;2.28;2.17;;;;;;;;;;5031275;28;20179;-66
2021/01/17 05:39:26;;;;;;;1.23;1.23;;;;;;;;;;5031352;28;20199;-65
2021/01/17 05:41:52;;;;;;;1.42;1.42;;;;;;;;;;5031372;28;20203;-66
2021/01/17 05:44:30;;;;;;;1.90;1.90;;;;;;;;;;5031557;28;20188;-66
2021/01/17 05:47:06;;;;;;;3.28;3.08;;;;;;;;;;5032335;28;20211;-66
2021/01/17 05:49:32;;;;;;;1.90;1.80;;;;;;;;;;5034406;28;20259;-64
2021/01/17 05:52:11;;;;;;;2.72;2.63;;;;;;;;;;5034428;28;20180;-65
2021/01/17 05:54:38;;;;;;;1.67;1.60;;;;;;;;;;5034688;28;20192;-65
2021/01/17 05:57:13;;;;;;;1.80;1.75;;;;;;;;;;5034466;28;20581;-67
2021/01/17 05:59:39;;;;;;;1.50;1.50;;;;;;;;;;5032910;28;20310;-65
2021/01/17 06:02:11;;;;;;;1.27;1.27;;;;;;;;;;5034364;28;20239;-66
2021/01/17 06:04:39;;;;;;;2.15;2.05;;;;;;;;;;5034386;28;20259;-65
2021/01/17 06:07:06;;;;;;;1.42;1.42;;;;;;;;;;5034215;28;20172;-67
2021/01/17 06:09:33;;;;;;;1.13;1.13;;;;;;;;;;5034075;28;20659;-66
2021/01/17 06:11:59;;;;;;;1.92;1.92;;;;;;;;;;5034042;28;20214;-66
2021/01/17 06:14:25;;;;;;;2.60;2.50;;;;;;;;;;5034203;28;20217;-65
2021/01/17 06:16:57;;;;;;;2.25;2.13;;;;;;;;;;5033828;28;20179;-66
2021/01/17 06:19:29;;;;;;;1.45;1.23;;;;;;;;;;5034229;28;20203;-67
2021/01/17 06:21:59;;;;;;;2.10;2.10;;;;;;;;;;5035247;28;20699;-64
2021/01/17 06:24:34;;;;;;;1.08;1.08;;;;;;;;;;5035526;28;20168;-67
2021/01/17 06:27:02;;;;;;;1.38;1.38;;;;;;;;;;5035439;28;20678;-65
2021/01/17 06:29:35;;;;;;;1.02;1.02;;;;;;;;;;5035865;28;20173;-66
2021/01/17 06:32:08;;;;;;;2.92;2.83;;;;;;;;;;5035011;28;20176;-68
2021/01/17 06:34:34;;;;;;;1.10;1.10;;;;;;;;;;5051148;28;20208;-65
2021/01/17 06:37:05;;;;;;;3.05;2.83;;;;;;;;;;5067876;28;20183;-66
2021/01/17 06:39:31;;;;;;;2.63;2.53;;;;;;;;;;5053890;28;20198;-66
2021/01/17 06:41:58;;;;;;;1.52;1.52;;;;;;;;;;5059926;28;20195;-65
2021/01/17 06:44:31;;;;;;;2.95;2.78;;;;;;;;;;5068530;28;20171;-66
2021/01/17 06:46:57;;;;;;;6.47;1.92;;;;;;;;;;5053634;28;20225;-65
2021/01/17 06:49:23;;;;;;;2.45;1.83;;;;;;;;;;5060497;28;20182;-65
2021/01/17 06:51:50;;;;;;;2.13;2.03;;;;;;;;;;5057342;28;20174;-66
2021/01/17 06:54:17;;;;;;;2.35;2.25;;;;;;;;;;5053337;28;20866;-66
2021/01/17 06:56:47;;;;;;;0.85;0.85;;;;;;;;;;5069659;28;20188;-66
2021/01/17 06:59:13;;;;;;;2.03;1.92;;;;;;;;;;5072194;28;20182;-65
2021/01/17 07:01:43;;;;;;;2.83;2.63;;;;;;;;;;5071870;28;20229;-66
2021/01/17 07:04:16;;;;;;;1.40;1.30;;;;;;;;;;5073254;28;20242;-65
2021/01/17 07:06:48;;;;;;;2.05;1.95;;;;;;;;;;5068154;28;20180;-63
2021/01/17 07:09:21;;;;;;;2.58;2.38;;;;;;;;;;5053238;28;20174;-66
2021/01/17 07:12:00;;;;;;;3.47;3.30;;;;;;;;;;5054277;28;20732;-65
2021/01/17 07:14:28;;;;;;;2.00;2.00;;;;;;;;;;5053690;28;20237;-65
2021/01/17 07:16:56;;;;;;;1.65;1.55;;;;;;;;;;5052084;28;20663;-66
2021/01/17 07:19:26;;;;;;;0.88;0.88;;;;;;;;;;5053097;28;20179;-66
2021/01/17 07:21:52;;;;;;;1.42;1.38;;;;;;;;;;5069588;28;20261;-66
2021/01/17 07:24:21;;;;;;;1.70;1.70;;;;;;;;;;5060575;28;20220;-64
2021/01/17 07:26:47;;;;;;;2.25;2.15;;;;;;;;;;5060565;28;20253;-65
2021/01/17 07:29:15;;;;;;;2.65;2.55;;;;;;;;;;5049743;28;20192;-64
2021/01/17 07:31:41;;;;;;;1.08;1.08;;;;;;;;;;5052207;28;20225;-65
2021/01/17 07:34:12;;;;;;;2.55;2.40;;;;;;;;;;5056594;28;20744;-65
2021/01/17 07:36:47;;;;;;;2.60;2.50;;;;;;;;;;5071976;28;20182;-63
2021/01/17 07:39:16;;;;;;;1.58;1.40;;;;;;;;;;5057182;28;20183;-67
2021/01/17 07:41:46;;;;;;;2.15;1.73;;;;;;;;;;5066263;28;20237;-65
2021/01/17 07:44:15;;;;;;;2.30;2.28;;;;;;;;;;5058843;28;20757;-65
2021/01/17 07:46:42;;;;;;;2.45;2.35;;;;;;;;;;5064674;28;20719;-65
2021/01/17 07:49:10;;;;;;;1.00;1.00;;;;;;;;;;5065611;28;20178;-65
2021/01/17 07:51:36;;;;;;;1.73;1.60;;;;;;;;;;5063977;28;20216;-65
2021/01/17 07:54:20;;;;;;;5.68;2.97;;;;;;;;;;5069701;28;20459;-65
2021/01/17 07:56:47;;;;;;;2.53;2.33;;;;;;;;;;5041893;28;20208;-65
2021/01/17 07:59:13;;;;;;;4.55;4.25;;;;;;;;;;5056674;28;20230;-63
2021/01/17 08:01:39;;;;;;;2.03;1.95;;;;;;;;;;5039183;28;20198;-65
2021/01/17 08:04:05;;;;;;;2.75;2.63;;;;;;;;;;5069157;28;20201;-62
2021/01/17 08:06:37;;;;;;;2.13;2.03;;;;;;;;;;5046913;28;20648;-62
2021/01/17 08:09:03;;;;;;;1.95;1.88;;;;;;;;;;5036376;28;20489;-64
2021/01/17 08:11:48;;;;;;;2.83;2.72;;;;;;;;;;5051193;28;20214;-64
2021/01/17 08:14:23;;;;;;;2.75;2.65;;;;;;;;;;5050701;28;20212;-66
2021/01/17 08:17:08;;;;;;;1.77;1.67;;;;;;;;;;5054572;28;20183;-66
2021/01/17 08:19:43;;;;;;;4.22;3.88;;;;;;;;;;5065811;28;20179;-61
2021/01/17 08:22:19;;;;;;;2.03;1.85;;;;;;;;;;5070666;28;20201;-63
2021/01/17 08:24:45;;;;;;;1.38;1.35;;;;;;;;;;5070793;28;20169;-66
2021/01/17 08:27:11;;;;;;;2.60;2.50;;;;;;;;;;5056978;28;20559;-62
2021/01/17 08:30:15;;;;;;;3.42;2.05;;;;;;;;;;5049597;28;20500;-65
2021/01/17 08:32:49;;;;;;;4.32;3.25;;;;;;;;;;5003831;28;20199;-66
2021/01/17 08:35:15;;;;;;;1.40;1.40;;;;;;;;;;5028165;28;20262;-66
2021/01/17 08:38:04;;;;;;;2.25;2.15;;;;;;;;;;5050229;28;20193;-66
2021/01/17 08:40:30;;;;;;;2.25;1.75;;;;;;;;;;5063317;28;20256;-67
2021/01/17 08:42:57;;;;;;;1.53;1.53;;;;;;;;;;5070194;28;20214;-66
2021/01/17 08:45:23;;;;;;;1.20;1.20;;;;;;;;;;5055354;28;20882;-66
2021/01/17 08:47:50;;;;;;;2.60;2.42;;;;;;;;;;5050253;28;20171;-65
2021/01/17 08:50:31;;;;;;;1.52;1.52;;;;;;;;;;5063331;28;20181;-66
2021/01/17 08:53:09;;;;;;;1.50;1.50;;;;;;;;;;5080163;22;20224;-64
2021/01/17 08:55:38;;;;;;;2.25;2.15;;;;;;;;;;5069127;28;20194;-64
2021/01/17 08:58:05;;;;;;;2.83;2.63;;;;;;;;;;5054569;28;20172;-64
2021/01/17 09:00:49;;;;;;;1.95;1.95;;;;;;;;;;5070833;28;20177;-65
2021/01/17 09:03:25;;;;;;;2.58;2.45;;;;;;;;;;5070440;28;20619;-64
2021/01/17 09:05:52;;;;;;;1.55;1.55;;;;;;;;;;5069192;28;20175;-64
2021/01/17 09:08:18;;;;;;;0.75;0.75;;;;;;;;;;5062705;28;20218;-65
2021/01/17 09:10:44;;;;;;;3.72;3.53;;;;;;;;;;5059279;28;20182;-64
2021/01/17 09:13:21;;;;;;;1.45;1.35;;;;;;;;;;5063410;28;20212;-64
2021/01/17 09:16:03;;;;;;;2.00;1.90;;;;;;;;;;5067617;28;20261;-64
2021/01/17 09:18:30;;;;;;;4.20;3.90;;;;;;;;;;5051731;28;20164;-64
2021/01/17 09:20:57;;;;;;;3.45;1.95;;;;;;;;;;5049676;28;20274;-64
2021/01/17 09:23:23;;;;;;;1.38;1.38;;;;;;;;;;5053260;28;20231;-65
2021/01/17 09:25:55;;;;;;;6.63;5.18;;;;;;;;;;5052665;28;20823;-64
2021/01/17 09:28:21;;;;;;;1.52;1.52;;;;;;;;;;5053989;28;20183;-64
2021/01/17 09:30:48;;;;;;;3.70;3.38;;;;;;;;;;5054240;28;20176;-64
2021/01/17 09:33:15;;;;;;;2.10;2.05;;;;;;;;;;5054054;28;20238;-65
2021/01/17 09:35:41;;;;;;;2.65;2.55;;;;;;;;;;5064123;28;20179;-64
2021/01/17 09:38:12;;;;;;;2.05;1.95;;;;;;;;;;5074149;28;20179;-64
2021/01/17 09:40:39;;;;;;;1.60;1.60;;;;;;;;;;5055635;28;20670;-65
2021/01/17 09:43:06;;;;;;;2.85;2.65;;;;;;;;;;5053630;28;20269;-63
2021/01/17 09:45:32;;;;;;;0.90;0.90;;;;;;;;;;5054187;28;20582;-64
2021/01/17 09:47:58;;;;;;;1.73;1.70;;;;;;;;;;5053713;28;20187;-64
2021/01/17 09:50:25;;;;;;;3.10;2.92;;;;;;;;;;5053673;28;20190;-64
2021/01/17 09:52:51;;;;;;;1.63;1.58;;;;;;;;;;5053782;28;20196;-65
2021/01/17 09:55:16;;;;;;;2.00;1.90;;;;;;;;;;5054718;28;20677;-64
2021/01/17 09:57:43;;;;;;;1.27;1.17;;;;;;;;;;5073026;28;20174;-64
2021/01/17 10:00:18;;;;;;;2.30;2.20;;;;;;;;;;5072594;28;21089;-64
2021/01/17 10:02:44;;;;;;;1.40;1.40;;;;;;;;;;5072428;28;20305;-64
2021/01/17 10:05:10;;;;;;;3.22;2.60;;;;;;;;;;5073393;28;20213;-64
2021/01/17 10:07:36;;;;;;;1.55;1.55;;;;;;;;;;5073364;28;20175;-64
2021/01/17 10:10:08;;;;;;;2.28;2.08;;;;;;;;;;5072711;28;20221;-64
2021/01/17 10:12:34;;;;;;;1.23;1.23;;;;;;;;;;5059822;28;20582;-64
2021/01/17 10:15:00;;;;;;;2.53;2.38;;;;;;;;;;5052210;28;20179;-64
2021/01/17 10:17:26;;;;;;;1.10;1.10;;;;;;;;;;5053181;28;20631;-64
2021/01/17 10:19:52;;;;;;;2.30;2.20;;;;;;;;;;5053026;28;20190;-64
2021/01/17 10:22:18;;;;;;;1.95;1.85;;;;;;;;;;5053203;28;20474;-64
2021/01/17 10:24:44;;;;;;;0.80;0.80;;;;;;;;;;5053352;28;20200;-64
2021/01/17 10:27:11;;;;;;;1.85;1.70;;;;;;;;;;5052517;28;20172;-64
2021/01/17 10:29:38;;;;;;;2.90;2.70;;;;;;;;;;5053177;28;20267;-64
2021/01/17 10:32:05;;;;;;;1.63;1.58;;;;;;;;;;5053658;28;20647;-64
2021/01/17 10:34:32;;;;;;;1.48;1.48;;;;;;;;;;5050053;28;20670;-64
2021/01/17 10:37:02;;;;;;;0.60;0.60;;;;;;;;;;5049936;28;20664;-64
2021/01/17 10:39:29;;;;;;;0.90;0.90;;;;;;;;;;5048331;28;20187;-64
2021/01/17 10:42:03;;;;;;;2.25;2.15;;;;;;;;;;5053824;28;20200;-64
2021/01/17 10:44:30;;;;;;;1.90;1.80;;;;;;;;;;5050457;28;20286;-64
2021/01/17 10:46:59;;;;;;;2.13;2.05;;;;;;;;;;5052155;28;20183;-64
2021/01/17 10:49:27;;;;;;;1.80;1.70;;;;;;;;;;5046778;28;20182;-64
2021/01/17 10:51:55;;;;;;;1.70;1.48;;;;;;;;;;5053727;28;20310;-64
2021/01/17 10:54:25;;;;;;;1.67;1.58;;;;;;;;;;5068804;28;20275;-64
2021/01/17 10:56:54;;;;;;;1.42;1.38;;;;;;;;;;5065948;28;20294;-64
2021/01/17 10:59:24;;;;;;;2.78;2.58;;;;;;;;;;5051116;28;20187;-64
2021/01/17 11:01:50;;;;;;;2.17;2.08;;;;;;;;;;5051158;28;20554;-64
2021/01/17 11:04:16;;;;;;;2.08;1.98;;;;;;;;;;5051576;28;20203;-64
2021/01/17 11:06:46;;;;;;;3.00;2.78;;;;;;;;;;5062035;28;20237;-64
2021/01/17 11:09:14;;;;;;;1.08;1.08;;;;;;;;;;5070404;28;20574;-64
2021/01/17 11:11:52;;;;;;;1.65;1.55;;;;;;;;;;5072316;28;20254;-64
2021/01/17 11:14:26;;;;;;;2.25;1.85;;;;;;;;;;5072255;28;20191;-64
2021/01/17 11:16:52;;;;;;;2.53;2.42;;;;;;;;;;5072228;28;20172;-64
2021/01/17 11:19:19;;;;;;;2.88;2.67;;;;;;;;;;5072029;28;20180;-64
2021/01/17 11:21:45;;;;;;;1.80;1.75;;;;;;;;;;5072315;28;20320;-64
2021/01/17 11:24:12;;;;;;;0.80;0.80;;;;;;;;;;5071559;28;20191;-64
2021/01/17 11:26:38;;;;;;;1.98;1.88;;;;;;;;;;5072159;28;20263;-64
2021/01/17 11:29:08;;;;;;;1.45;1.45;;;;;;;;;;5071748;28;20170;-64
2021/01/17 11:31:34;;;;;;;1.65;1.65;;;;;;;;;;5071773;28;20273;-64
2021/01/17 11:34:11;;;;;;;1.85;1.85;;;;;;;;;;5071450;28;20287;-64
2021/01/17 11:36:37;;;;;;;2.22;2.13;;;;;;;;;;5071887;28;20186;-64
2021/01/17 11:39:04;;;;;;;1.65;1.60;;;;;;;;;;5071787;28;20541;-64
2021/01/17 11:41:40;;;;;;;2.08;1.98;;;;;;;;;;5071787;28;20281;-64
2021/01/17 11:44:10;;;;;;;1.83;1.73;;;;;;;;;;5071959;28;20191;-64
2021/01/17 11:46:37;;;;;;;3.88;2.58;;;;;;;;;;5071274;28;20171;-64
2021/01/17 11:49:03;;;;;;;1.52;1.42;;;;;;;;;;5071864;28;20510;-64
2021/01/17 11:51:30;;;;;;;1.55;1.55;;;;;;;;;;5071750;28;20180;-63
2021/01/17 11:53:57;;;;;;;5.13;3.05;;;;;;;;;;5071530;28;20214;-64
2021/01/17 11:56:26;;;;;;;3.38;3.13;;;;;;;;;;5069669;28;20184;-64
2021/01/17 11:58:52;;;;;;;1.77;1.70;;;;;;;;;;5071534;28;20171;-64
2021/01/17 12:01:25;;;;;;;1.80;1.70;;;;;;;;;;5071583;28;20696;-64
2021/01/17 12:03:58;;;;;;;4.55;2.22;;;;;;;;;;5071606;28;20522;-64
2021/01/17 12:06:24;;;;;;;3.25;3.08;;;;;;;;;;5071454;28;20175;-64
2021/01/17 12:08:57;;;;;;;2.97;2.70;;;;;;;;;;5070717;28;20171;-64
2021/01/17 12:11:34;;;;;;;1.67;1.58;;;;;;;;;;5071507;28;20488;-64
2021/01/17 12:14:00;;;;;;;1.65;1.55;;;;;;;;;;5071521;28;20835;-64
2021/01/17 12:16:46;;;;;;;1.70;1.70;;;;;;;;;;5071678;28;20650;-64
2021/01/17 12:19:14;;;;;;;1.80;1.70;;;;;;;;;;5066216;28;20278;-64
2021/01/17 12:21:40;;;;;;;1.35;1.35;;;;;;;;;;5071601;28;20212;-64
2021/01/17 12:24:08;;;;;;;3.00;2.83;;;;;;;;;;5071323;28;20598;-64
2021/01/17 12:26:34;;;;;;;0.90;0.90;;;;;;;;;;5071467;28;20682;-64
2021/01/17 12:29:00;;;;;;;1.85;1.60;;;;;;;;;;5070835;28;20178;-64
2021/01/17 12:31:26;;;;;;;1.77;1.67;;;;;;;;;;5052320;28;20191;-64
2021/01/17 12:33:53;;;;;;;1.77;1.70;;;;;;;;;;5051506;28;20196;-64
2021/01/17 12:36:22;;;;;;;1.35;1.30;;;;;;;;;;5051350;28;20184;-65
2021/01/17 12:38:48;;;;;;;1.77;1.77;;;;;;;;;;5051205;28;20226;-64
2021/01/17 12:41:15;;;;;;;3.28;3.13;;;;;;;;;;5050876;28;20192;-64
2021/01/17 12:43:42;;;;;;;3.25;3.00;;;;;;;;;;5051030;28;20214;-64
2021/01/17 12:46:09;;;;;;;3.55;3.33;;;;;;;;;;5051360;28;20180;-64
2021/01/17 12:48:35;;;;;;;5.95;2.90;;;;;;;;;;5051296;28;20164;-64
2021/01/17 12:51:01;;;;;;;2.90;2.78;;;;;;;;;;5051074;28;20587;-64
2021/01/17 12:53:27;;;;;;;2.60;2.40;;;;;;;;;;5050452;28;20203;-64
2021/01/17 12:55:53;;;;;;;1.87;1.87;;;;;;;;;;5050865;28;20569;-64
2021/01/17 12:58:20;;;;;;;1.00;1.00;;;;;;;;;;5050818;28;20929;-64
2021/01/17 13:00:46;;;;;;;3.17;3.08;;;;;;;;;;5050803;28;20196;-64
2021/01/17 13:03:12;;;;;;;1.57;1.43;;;;;;;;;;5051383;28;20285;-64
2021/01/17 13:05:37;;;;;;;2.47;2.28;;;;;;;;;;5051122;28;20422;-64
2021/01/17 13:08:04;;;;;;;3.10;2.95;;;;;;;;;;5051236;28;20718;-64
2021/01/17 13:10:30;;;;;;;2.88;2.50;;;;;;;;;;5050848;28;20211;-64
2021/01/17 13:12:56;;;;;;;1.90;1.80;;;;;;;;;;5051022;28;20192;-64
2021/01/17 13:15:24;;;;;;;2.42;2.22;;;;;;;;;;5050427;28;20172;-64
2021/01/17 13:17:50;;;;;;;1.20;1.20;;;;;;;;;;5050931;28;20536;-64
2021/01/17 13:20:16;;;;;;;2.38;2.15;;;;;;;;;;5050797;28;20521;-64
2021/01/17 13:22:42;;;;;;;2.92;2.08;;;;;;;;;;5050896;28;20552;-64
2021/01/17 13:25:09;;;;;;;1.52;1.52;;;;;;;;;;5050557;28;20655;-65
2021/01/17 13:27:35;;;;;;;6.03;3.58;;;;;;;;;;5050528;28;20658;-64
2021/01/17 13:30:01;;;;;;;1.13;1.13;;;;;;;;;;5050698;28;20547;-64
2021/01/17 13:32:27;;;;;;;1.10;1.10;;;;;;;;;;5049260;28;20580;-64
2021/01/17 13:34:53;;;;;;;1.77;1.67;;;;;;;;;;5050670;28;20242;-64
2021/01/17 13:37:19;;;;;;;2.75;2.65;;;;;;;;;;5050465;28;20273;-64
2021/01/17 13:39:46;;;;;;;2.55;2.35;;;;;;;;;;5050392;28;20613;-64
2021/01/17 13:42:13;;;;;;;2.20;1.40;;;;;;;;;;5050738;28;20303;-64
2021/01/17 13:44:39;;;;;;;3.10;2.65;;;;;;;;;;5050656;28;20191;-64
2021/01/17 13:47:05;;;;;;;1.33;1.33;;;;;;;;;;5050664;28;20217;-64
2021/01/17 13:49:31;;;;;;;2.42;2.20;;;;;;;;;;5050112;28;20594;-64
2021/01/17 13:52:03;;;;;;;2.75;2.55;;;;;;;;;;5050621;28;20203;-64
2021/01/17 13:54:30;;;;;;;1.20;1.20;;;;;;;;;;5050273;28;20207;-64
2021/01/17 13:56:57;;;;;;;4.22;3.97;;;;;;;;;;5050397;28;20210;-65
2021/01/17 13:59:24;;;;;;;2.25;2.25;;;;;;;;;;5049821;28;20180;-65
2021/01/17 14:01:50;;;;;;;2.15;2.05;;;;;;;;;;5050473;28;20247;-65
2021/01/17 14:04:16;;;;;;;1.80;1.77;;;;;;;;;;5050689;28;20192;-64
2021/01/17 14:06:42;;;;;;;2.85;2.58;;;;;;;;;;5050287;28;20179;-64
2021/01/17 14:09:08;;;;;;;1.88;1.77;;;;;;;;;;5052959;28;20226;-64
2021/01/17 14:11:35;;;;;;;3.83;3.10;;;;;;;;;;5053439;28;20186;-64
2021/01/17 14:14:01;;;;;;;1.98;1.88;;;;;;;;;;5054058;28;20196;-64
2021/01/17 14:16:27;;;;;;;2.38;2.28;;;;;;;;;;5054017;28;20659;-64
2021/01/17 14:18:52;;;;;;;3.00;2.90;;;;;;;;;;5053586;28;20168;-64
2021/01/17 14:21:18;;;;;;;2.07;1.97;;;;;;;;;;5053326;28;20211;-64
2021/01/17 14:23:44;;;;;;;2.55;2.22;;;;;;;;;;5053490;28;20527;-64
2021/01/17 14:26:11;;;;;;;2.10;2.00;;;;;;;;;;5053730;28;20171;-64
2021/01/17 14:28:36;;;;;;;1.40;1.40;;;;;;;;;;5053746;28;20164;-64
2021/01/17 14:31:02;;;;;;;1.45;1.45;;;;;;;;;;5053459;28;20168;-64
2021/01/17 14:33:28;;;;;;;1.83;1.73;;;;;;;;;;5053180;28;20195;-64
2021/01/17 14:35:54;;;;;;;3.13;2.15;;;;;;;;;;5053529;28;20251;-64
2021/01/17 14:38:20;;;;;;;1.90;1.80;;;;;;;;;;5053159;28;20175;-64
2021/01/17 14:40:46;;;;;;;0.70;0.70;;;;;;;;;;5053180;28;20407;-64
2021/01/17 14:43:12;;;;;;;1.73;1.73;;;;;;;;;;5052991;28;20466;-64
2021/01/17 14:45:38;;;;;;;2.65;2.45;;;;;;;;;;5053093;28;20901;-64
2021/01/17 14:48:05;;;;;;;2.10;2.00;;;;;;;;;;5052212;28;20176;-64
2021/01/17 14:50:31;;;;;;;1.90;1.80;;;;;;;;;;5053040;28;20550;-64